createdAt,value
2019-05-02T00:00:03.998Z,7.6
2019-05-02T00:00:54.892Z,7.6
2019-05-02T00:01:45.789Z,7.6
2019-05-02T00:02:36.671Z,7.6
2019-05-02T00:03:27.592Z,7.6
2019-05-02T00:04:20.189Z,7.6
2019-05-02T00:05:11.909Z,7.6
2019-05-02T00:06:06.942Z,7.6
2019-05-02T00:06:58.163Z,7.6
2019-05-02T00:07:49.081Z,7.6
2019-05-02T00:08:39.985Z,7.6
2019-05-02T00:09:33.338Z,7.7
2019-05-02T00:10:24.991Z,7.7
2019-05-02T00:11:16.843Z,7.7
2019-05-02T00:12:07.735Z,7.7
2019-05-02T00:12:58.725Z,7.7
2019-05-02T00:13:49.625Z,7.7
2019-05-02T00:14:40.522Z,7.7
2019-05-02T00:15:32.986Z,7.7
2019-05-02T00:16:24.175Z,7.7
2019-05-02T00:17:15.048Z,7.7
2019-05-02T00:18:05.981Z,7.7
2019-05-02T00:18:56.891Z,7.7
2019-05-02T00:19:49.774Z,7.7
2019-05-02T00:20:40.838Z,7.7
2019-05-02T00:21:32.829Z,7.7
2019-05-02T00:22:23.988Z,7.7
2019-05-02T00:23:14.913Z,7.7
2019-05-02T00:24:05.808Z,7.7
2019-05-02T00:24:56.706Z,7.7
2019-05-02T00:25:52.478Z,7.7
2019-05-02T00:26:43.422Z,7.7
2019-05-02T00:27:37.643Z,7.7
2019-05-02T00:28:28.957Z,7.7
2019-05-02T00:29:23.652Z,7.7
2019-05-02T00:30:14.782Z,7.7
2019-05-02T00:31:07.342Z,7.7
2019-05-02T00:32:01.497Z,7.7
2019-05-02T00:32:53.088Z,7.7
2019-05-02T00:33:50.342Z,7.7
2019-05-02T00:34:41.244Z,7.7
2019-05-02T00:35:32.138Z,7.7
2019-05-02T00:36:23.020Z,7.7
2019-05-02T00:37:13.922Z,7.7
2019-05-02T00:38:04.853Z,7.7
2019-05-02T00:38:55.761Z,7.7
2019-05-02T00:39:49.127Z,7.7
2019-05-02T00:40:40.391Z,7.7
2019-05-02T00:41:33.015Z,7.7
2019-05-02T00:42:24.242Z,7.7
2019-05-02T00:43:15.176Z,7.7
2019-05-02T00:44:10.521Z,7.7
2019-05-02T00:45:01.762Z,7.7
2019-05-02T00:45:54.947Z,7.7
2019-05-02T00:46:46.047Z,7.7
2019-05-02T00:47:36.953Z,7.7
2019-05-02T00:48:27.890Z,7.7
2019-05-02T00:49:18.778Z,7.7
2019-05-02T00:50:11.142Z,7.7
2019-05-02T00:51:02.306Z,7.7
2019-05-02T00:51:56.505Z,7.7
2019-05-02T00:52:47.571Z,7.7
2019-05-02T00:53:38.483Z,7.7
2019-05-02T00:54:33.175Z,7.7
2019-05-02T00:55:24.078Z,7.7
2019-05-02T00:56:14.981Z,7.7
2019-05-02T00:57:05.882Z,7.7
2019-05-02T00:57:56.929Z,7.7
2019-05-02T00:58:47.926Z,7.7
2019-05-02T00:59:42.352Z,7.7
2019-05-02T01:00:33.513Z,7.7
2019-05-02T01:01:29.357Z,7.8
2019-05-02T01:02:20.478Z,7.7
2019-05-02T01:03:16.128Z,7.7
2019-05-02T01:04:07.228Z,7.7
2019-05-02T01:04:59.220Z,7.7
2019-05-02T01:05:53.698Z,7.7
2019-05-02T01:06:48.735Z,7.7
2019-05-02T01:07:40.025Z,7.7
2019-05-02T01:08:35.405Z,7.7
2019-05-02T01:09:26.488Z,7.7
2019-05-02T01:10:21.176Z,7.7
2019-05-02T01:11:12.265Z,7.7
2019-05-02T01:12:08.175Z,7.6
2019-05-02T01:12:59.007Z,7.6
2019-05-02T01:13:50.205Z,7.6
2019-05-02T01:14:41.399Z,7.6
2019-05-02T01:15:32.295Z,7.6
2019-05-02T01:16:23.247Z,7.6
2019-05-02T01:17:14.158Z,7.6
2019-05-02T01:18:05.981Z,7.6
2019-05-02T01:18:57.403Z,7.6
2019-05-02T01:19:51.371Z,7.6
2019-05-02T01:20:42.477Z,7.6
2019-05-02T01:21:33.916Z,7.6
2019-05-02T01:22:25.121Z,7.6
2019-05-02T01:23:16.013Z,7.6
2019-05-02T01:24:06.946Z,7.6
2019-05-02T01:24:57.849Z,7.6
2019-05-02T01:25:52.653Z,7.5
2019-05-02T01:26:44.062Z,7.6
2019-05-02T01:27:35.937Z,7.5
2019-05-02T01:28:27.149Z,7.5
2019-05-02T01:29:18.090Z,7.5
2019-05-02T01:30:08.970Z,7.5
2019-05-02T01:30:59.857Z,7.5
2019-05-02T01:31:54.612Z,7.5
2019-05-02T01:32:45.859Z,7.5
2019-05-02T01:33:41.611Z,7.5
2019-05-02T01:34:32.603Z,7.4
2019-05-02T01:35:26.913Z,7.4
2019-05-02T01:36:18.256Z,7.4
2019-05-02T01:37:11.834Z,7.4
2019-05-02T01:38:03.350Z,7.4
2019-05-02T01:38:54.304Z,7.4
2019-05-02T01:39:45.199Z,7.4
2019-05-02T01:40:36.109Z,7.4
2019-05-02T01:41:29.061Z,7.4
2019-05-02T01:42:20.124Z,7.4
2019-05-02T01:43:11.017Z,7.3
2019-05-02T01:44:01.950Z,7.3
2019-05-02T01:44:52.821Z,7.3
2019-05-02T01:45:46.538Z,7.3
2019-05-02T01:46:37.626Z,7.3
2019-05-02T01:47:29.031Z,7.3
2019-05-02T01:48:20.150Z,7.2
2019-05-02T01:49:11.102Z,7.2
2019-05-02T01:50:01.988Z,7.2
2019-05-02T01:50:52.893Z,7.2
2019-05-02T01:51:47.313Z,7.2
2019-05-02T01:52:38.531Z,7.2
2019-05-02T01:53:34.026Z,7.1
2019-05-02T01:54:25.215Z,7.2
2019-05-02T01:55:16.911Z,7.1
2019-05-02T01:56:08.132Z,7.1
2019-05-02T01:57:03.865Z,7.1
2019-05-02T01:57:55.023Z,7.1
2019-05-02T01:58:45.919Z,7.1
2019-05-02T01:59:36.869Z,7.1
2019-05-02T02:00:27.750Z,7.1
2019-05-02T02:01:21.381Z,7.1
2019-05-02T02:02:12.494Z,7.1
2019-05-02T02:03:04.102Z,7.1
2019-05-02T02:03:55.216Z,7.1
2019-05-02T02:04:46.138Z,7.1
2019-05-02T02:05:37.036Z,7.1
2019-05-02T02:06:27.937Z,7.1
2019-05-02T02:07:19.908Z,7.1
2019-05-02T02:08:11.231Z,7.1
2019-05-02T02:09:03.273Z,7
2019-05-02T02:09:54.466Z,7.1
2019-05-02T02:10:45.346Z,7
2019-05-02T02:11:36.240Z,7
2019-05-02T02:12:27.129Z,7
2019-05-02T02:13:18.033Z,7.1
2019-05-02T02:14:12.758Z,7
2019-05-02T02:15:04.528Z,7
2019-05-02T02:15:55.421Z,7
2019-05-02T02:16:46.312Z,7
2019-05-02T02:17:37.765Z,7
2019-05-02T02:18:29.409Z,7.1
2019-05-02T02:19:20.388Z,7.1
2019-05-02T02:20:14.008Z,7.1
2019-05-02T02:21:05.294Z,7.1
2019-05-02T02:21:57.261Z,7.1
2019-05-02T02:22:48.568Z,7
2019-05-02T02:23:39.453Z,7
2019-05-02T02:24:30.381Z,7
2019-05-02T02:25:21.403Z,7
2019-05-02T02:26:13.843Z,6.9
2019-05-02T02:27:04.809Z,6.9
2019-05-02T02:27:59.554Z,6.9
2019-05-02T02:28:50.664Z,7
2019-05-02T02:29:43.921Z,6.9
2019-05-02T02:30:35.108Z,7
2019-05-02T02:31:25.990Z,7
2019-05-02T02:32:19.901Z,7
2019-05-02T02:33:11.115Z,7
2019-05-02T02:34:02.018Z,6.9
2019-05-02T02:34:52.980Z,7
2019-05-02T02:35:49.136Z,7
2019-05-02T02:36:39.736Z,7
2019-05-02T02:37:30.626Z,7
2019-05-02T02:38:26.706Z,7
2019-05-02T02:39:17.346Z,7
2019-05-02T02:40:08.293Z,7
2019-05-02T02:40:59.185Z,7
2019-05-02T02:41:51.935Z,7
2019-05-02T02:42:43.386Z,6.9
2019-05-02T02:43:35.037Z,7
2019-05-02T02:44:26.004Z,6.9
2019-05-02T02:45:18.505Z,6.9
2019-05-02T02:46:11.112Z,6.9
2019-05-02T02:47:02.014Z,7
2019-05-02T02:47:59.782Z,7
2019-05-02T02:48:48.736Z,7
2019-05-02T02:49:39.678Z,7
2019-05-02T02:50:30.601Z,7
2019-05-02T02:51:24.199Z,7
2019-05-02T02:52:15.596Z,7
2019-05-02T02:53:06.509Z,7
2019-05-02T02:54:05.453Z,7
2019-05-02T02:54:53.259Z,7
2019-05-02T02:55:44.148Z,7
2019-05-02T02:56:40.382Z,7
2019-05-02T02:57:30.871Z,7
2019-05-02T02:58:21.773Z,7.1
2019-05-02T02:59:19.262Z,7.1
2019-05-02T03:00:10.996Z,7.1
2019-05-02T03:01:02.191Z,7.1
2019-05-02T03:01:53.082Z,7.1
2019-05-02T03:02:48.375Z,7.1
2019-05-02T03:03:39.617Z,7.1
2019-05-02T03:04:30.522Z,7.1
2019-05-02T03:05:25.837Z,7.1
2019-05-02T03:06:17.385Z,7.1
2019-05-02T03:07:08.275Z,7.1
2019-05-02T03:08:04.828Z,7.1
2019-05-02T03:08:54.981Z,7.1
2019-05-02T03:09:45.905Z,7.1
2019-05-02T03:10:39.808Z,7.1
2019-05-02T03:11:37.621Z,7
2019-05-02T03:12:28.512Z,7
2019-05-02T03:13:21.605Z,7
2019-05-02T03:14:12.820Z,7
2019-05-02T03:15:03.721Z,7
2019-05-02T03:16:00.263Z,7
2019-05-02T03:16:50.465Z,7
2019-05-02T03:17:41.367Z,7
2019-05-02T03:18:39.388Z,7
2019-05-02T03:19:28.100Z,7
2019-05-02T03:21:13.161Z,7.1
2019-05-02T03:22:04.356Z,7.1
2019-05-02T03:22:55.240Z,7.1
2019-05-02T03:23:46.142Z,7.1
2019-05-02T03:24:43.860Z,7.1
2019-05-02T03:25:49.632Z,7.1
2019-05-02T03:26:28.721Z,7.1
2019-05-02T03:27:19.625Z,7.2
2019-05-02T03:28:17.232Z,7.2
2019-05-02T03:29:06.345Z,7.2
2019-05-02T03:29:57.236Z,7.2
2019-05-02T03:30:48.162Z,7.2
2019-05-02T03:31:39.075Z,7.2
2019-05-02T03:32:34.849Z,7.2
2019-05-02T03:33:25.790Z,7.2
2019-05-02T03:34:16.683Z,7.2
2019-05-02T03:35:07.621Z,7.2
2019-05-02T03:35:58.512Z,7.2
2019-05-02T03:36:49.410Z,7.2
2019-05-02T03:37:44.650Z,7.2
2019-05-02T03:38:36.020Z,7.2
2019-05-02T03:39:26.905Z,7.2
2019-05-02T03:40:17.846Z,7.2
2019-05-02T03:41:13.054Z,7.2
2019-05-02T03:42:05.060Z,7.3
2019-05-02T03:42:56.044Z,7.3
2019-05-02T03:43:46.948Z,7.2
2019-05-02T03:44:37.824Z,7.2
2019-05-02T03:45:31.976Z,7.2
2019-05-02T03:46:24.609Z,7.2
2019-05-02T03:47:15.526Z,7.2
2019-05-02T03:48:06.408Z,7.2
2019-05-02T03:49:05.324Z,7.2
2019-05-02T03:49:53.147Z,7.2
2019-05-02T03:50:44.125Z,7.2
2019-05-02T03:51:35.026Z,7.2
2019-05-02T03:52:25.908Z,7.2
2019-05-02T03:53:17.489Z,7.1
2019-05-02T03:54:12.642Z,7.1
2019-05-02T03:55:03.547Z,7.1
2019-05-02T03:55:54.489Z,7.1
2019-05-02T03:56:51.025Z,7.1
2019-05-02T03:57:42.045Z,7
2019-05-02T03:58:33.199Z,7
2019-05-02T03:59:36.729Z,7
2019-05-02T04:00:21.471Z,7
2019-05-02T04:01:14.702Z,7
2019-05-02T04:02:05.720Z,7
2019-05-02T04:03:00.141Z,7
2019-05-02T04:03:51.679Z,7
2019-05-02T04:04:42.553Z,7
2019-05-02T04:05:39.836Z,7
2019-05-02T04:06:29.443Z,6.9
2019-05-02T04:07:20.332Z,6.9
2019-05-02T04:08:19.393Z,6.9
2019-05-02T04:09:07.046Z,6.9
2019-05-02T04:09:57.965Z,6.9
2019-05-02T04:10:52.494Z,6.9
2019-05-02T04:11:43.863Z,6.9
2019-05-02T04:12:34.744Z,6.9
2019-05-02T04:13:29.968Z,6.8
2019-05-02T04:14:36.742Z,6.8
2019-05-02T04:15:16.997Z,6.8
2019-05-02T04:16:14.274Z,6.8
2019-05-02T04:17:03.767Z,6.8
2019-05-02T04:17:54.650Z,6.8
2019-05-02T04:18:54.358Z,6.8
2019-05-02T04:19:41.386Z,6.8
2019-05-02T04:20:32.269Z,6.8
2019-05-02T04:21:25.806Z,6.8
2019-05-02T04:22:17.035Z,6.8
2019-05-02T04:23:07.990Z,6.9
2019-05-02T04:24:10.697Z,6.9
2019-05-02T04:24:56.684Z,6.9
2019-05-02T04:25:47.891Z,6.9
2019-05-02T04:26:38.775Z,6.9
2019-05-02T04:27:33.916Z,6.9
2019-05-02T04:28:25.027Z,6.9
2019-05-02T04:29:15.930Z,6.9
2019-05-02T04:30:11.021Z,6.9
2019-05-02T04:31:02.646Z,6.9
2019-05-02T04:31:53.522Z,6.9
2019-05-02T04:32:49.553Z,6.9
2019-05-02T04:33:40.205Z,6.9
2019-05-02T04:34:31.112Z,6.9
2019-05-02T04:35:21.990Z,6.9
2019-05-02T04:36:14.997Z,7
2019-05-02T04:37:08.242Z,7
2019-05-02T04:38:02.219Z,7
2019-05-02T04:38:53.587Z,7.1
2019-05-02T04:39:44.479Z,7.1
2019-05-02T04:40:41.613Z,7.1
2019-05-02T04:41:33.982Z,7.1
2019-05-02T04:42:25.140Z,7.1
2019-05-02T04:43:18.344Z,7.1
2019-05-02T04:44:09.632Z,7.1
2019-05-02T04:45:17.258Z,7.1
2019-05-02T04:45:59.974Z,7.1
2019-05-02T04:46:51.042Z,7.2
2019-05-02T04:47:42.414Z,7.2
2019-05-02T04:48:40.358Z,7.2
2019-05-02T04:49:35.498Z,7.2
2019-05-02T04:50:26.421Z,7.2
2019-05-02T04:51:20.721Z,7.2
2019-05-02T04:52:14.749Z,7.2
2019-05-02T04:53:08.554Z,7.2
2019-05-02T04:53:59.573Z,7.3
2019-05-02T04:54:50.495Z,7.3
2019-05-02T04:55:41.517Z,7.3
2019-05-02T04:56:32.477Z,7.3
2019-05-02T04:57:26.981Z,7.4
2019-05-02T04:58:27.486Z,7.4
2019-05-02T04:59:19.716Z,7.4
2019-05-02T05:00:11.911Z,7.4
2019-05-02T05:01:02.922Z,7.4
2019-05-02T05:01:57.496Z,7.4
2019-05-02T05:02:52.853Z,7.4
2019-05-02T05:03:49.014Z,7.4
2019-05-02T05:04:45.952Z,7.4
2019-05-02T05:05:40.303Z,7.4
2019-05-02T05:06:31.389Z,7.4
2019-05-02T05:07:22.288Z,7.3
2019-05-02T05:08:17.363Z,7.3
2019-05-02T05:09:10.216Z,7.3
2019-05-02T05:10:04.345Z,7.2
2019-05-02T05:10:57.258Z,7.2
2019-05-02T05:11:48.282Z,7.2
2019-05-02T05:12:41.741Z,7.2
2019-05-02T05:13:32.837Z,7.2
2019-05-02T05:14:23.732Z,7.2
2019-05-02T05:15:33.222Z,7.1
2019-05-02T05:16:14.999Z,7.1
2019-05-02T05:17:07.952Z,7.1
2019-05-02T05:17:58.970Z,7.1
2019-05-02T05:18:53.055Z,7.1
2019-05-02T05:19:44.077Z,7.1
2019-05-02T05:20:37.765Z,7.1
2019-05-02T05:21:29.500Z,7.1
2019-05-02T05:22:20.389Z,7.1
2019-05-02T05:23:15.590Z,7.1
2019-05-02T05:24:07.685Z,7.1
2019-05-02T05:24:58.680Z,7.1
2019-05-02T05:25:50.612Z,7.1
2019-05-02T05:27:37.692Z,7.1
2019-05-02T05:28:28.653Z,7.1
2019-05-02T05:29:23.196Z,7.1
2019-05-02T05:30:15.578Z,7.1
2019-05-02T05:31:07.745Z,7.1
2019-05-02T05:32:05.083Z,7.1
2019-05-02T05:32:54.542Z,7.2
2019-05-02T05:33:45.438Z,7.2
2019-05-02T05:34:37.942Z,7.3
2019-05-02T05:35:28.952Z,7.4
2019-05-02T05:36:20.099Z,7.4
2019-05-02T05:37:17.221Z,7.5
2019-05-02T05:38:08.238Z,7.6
2019-05-02T05:39:02.912Z,7.6
2019-05-02T05:39:54.071Z,7.7
2019-05-02T05:40:44.964Z,7.6
2019-05-02T05:41:37.790Z,7.6
2019-05-02T05:42:33.034Z,7.4
2019-05-02T05:43:24.081Z,7.4
2019-05-02T05:44:14.963Z,7.5
2019-05-02T05:45:09.541Z,7.6
2019-05-02T05:46:09.601Z,7.6
2019-05-02T05:46:58.106Z,7.7
2019-05-02T05:47:52.295Z,7.7
2019-05-02T05:48:43.518Z,7.7
2019-05-02T05:49:34.498Z,7.8
2019-05-02T05:50:27.391Z,7.7
2019-05-02T05:51:20.601Z,7.7
2019-05-02T05:52:11.645Z,7.7
2019-05-02T05:53:02.540Z,7.7
2019-05-02T05:53:57.235Z,7.7
2019-05-02T05:54:49.230Z,7.6
2019-05-02T05:55:40.136Z,7.6
2019-05-02T05:56:32.414Z,7.6
2019-05-02T05:57:23.578Z,7.6
2019-05-02T05:58:15.718Z,7.7
2019-05-02T05:59:07.746Z,7.7
2019-05-02T06:00:03.654Z,7.7
2019-05-02T06:00:56.428Z,7.7
2019-05-02T06:01:51.576Z,7.7
2019-05-02T06:02:52.552Z,7.8
2019-05-02T06:03:39.355Z,7.9
2019-05-02T06:04:34.229Z,7.9
2019-05-02T06:05:27.119Z,7.9
2019-05-02T06:06:22.305Z,7.9
2019-05-02T06:07:13.950Z,8.1
2019-05-02T06:08:04.834Z,8.2
2019-05-02T06:08:55.753Z,8.3
2019-05-02T06:09:46.654Z,8.3
2019-05-02T06:10:38.932Z,8.2
2019-05-02T06:11:30.050Z,8
2019-05-02T06:12:20.974Z,7.9
2019-05-02T06:13:12.922Z,7.8
2019-05-02T06:14:03.866Z,7.7
2019-05-02T06:14:56.120Z,7.7
2019-05-02T06:15:47.326Z,7.8
2019-05-02T06:16:38.238Z,7.9
2019-05-02T06:17:30.427Z,7.9
2019-05-02T06:18:21.406Z,7.9
2019-05-02T06:19:12.914Z,8
2019-05-02T06:20:03.960Z,7.9
2019-05-02T06:20:54.832Z,7.9
2019-05-02T06:21:46.756Z,7.9
2019-05-02T06:22:37.746Z,8.1
2019-05-02T06:23:30.969Z,8.2
2019-05-02T06:24:22.088Z,8.2
2019-05-02T06:25:12.978Z,8.3
2019-05-02T06:26:07.620Z,8.4
2019-05-02T06:26:58.818Z,8.5
2019-05-02T06:27:49.751Z,8.5
2019-05-02T06:28:41.505Z,8.4
2019-05-02T06:29:33.156Z,8.4
2019-05-02T06:30:27.028Z,8.4
2019-05-02T06:31:18.089Z,8.6
2019-05-02T06:32:08.992Z,8.3
2019-05-02T06:32:59.927Z,8.3
2019-05-02T06:33:50.804Z,8.4
2019-05-02T06:34:46.321Z,8.4
2019-05-02T06:35:37.514Z,8.2
2019-05-02T06:36:31.901Z,8.1
2019-05-02T06:37:23.035Z,8.4
2019-05-02T06:38:13.938Z,8.6
2019-05-02T06:39:04.831Z,8.5
2019-05-02T06:39:55.711Z,8.5
2019-05-02T06:40:46.719Z,8.6
2019-05-02T06:41:37.607Z,8.5
2019-05-02T06:42:32.567Z,8.4
2019-05-02T06:43:23.921Z,8.4
2019-05-02T06:44:18.335Z,8.5
2019-05-02T06:45:10.628Z,8.7
2019-05-02T06:46:14.860Z,8.6
2019-05-02T06:47:03.705Z,8.4
2019-05-02T06:47:53.213Z,8.4
2019-05-02T06:48:48.118Z,8.2
2019-05-02T06:49:39.220Z,8
2019-05-02T06:50:33.233Z,7.7
2019-05-02T06:51:24.435Z,7.7
2019-05-02T06:52:15.339Z,7.8
2019-05-02T06:53:09.477Z,8.1
2019-05-02T06:54:00.913Z,8.3
2019-05-02T06:54:53.983Z,8.3
2019-05-02T06:55:50.079Z,8.3
2019-05-02T06:56:42.998Z,8.8
2019-05-02T06:57:34.173Z,9.7
2019-05-02T06:58:25.058Z,9.7
2019-05-02T06:59:18.343Z,9.8
2019-05-02T07:00:09.828Z,9.8
2019-05-02T07:01:00.730Z,9.8
2019-05-02T07:01:52.230Z,9.8
2019-05-02T07:02:43.411Z,9.8
2019-05-02T07:03:34.307Z,9.4
2019-05-02T07:04:25.198Z,9.4
2019-05-02T07:05:16.090Z,9.4
2019-05-02T07:06:07.756Z,9.4
2019-05-02T07:06:59.658Z,9.2
2019-05-02T07:07:50.844Z,9.1
2019-05-02T07:08:41.721Z,9.1
2019-05-02T07:09:40.189Z,9
2019-05-02T07:10:33.702Z,9.3
2019-05-02T07:11:24.467Z,9.8
2019-05-02T07:12:16.608Z,9.8
2019-05-02T07:13:10.608Z,9.8
2019-05-02T07:14:12.345Z,9.8
2019-05-02T07:15:01.486Z,9.7
2019-05-02T07:15:53.002Z,9.7
2019-05-02T07:16:43.885Z,9.8
2019-05-02T07:17:38.039Z,9.8
2019-05-02T07:18:29.620Z,9.8
2019-05-02T07:19:21.576Z,9.8
2019-05-02T07:20:12.848Z,9.8
2019-05-02T07:21:03.723Z,9.8
2019-05-02T07:21:58.389Z,9.8
2019-05-02T07:22:49.679Z,9.8
2019-05-02T07:23:40.562Z,9.8
2019-05-02T07:24:32.631Z,9.8
2019-05-02T07:25:24.392Z,9.8
2019-05-02T07:26:20.844Z,9.8
2019-05-02T07:27:11.293Z,9.8
2019-05-02T07:28:04.537Z,9.8
2019-05-02T07:28:55.787Z,9.8
2019-05-02T07:29:46.791Z,9.8
2019-05-02T07:30:37.731Z,9.8
2019-05-02T07:31:28.676Z,9.8
2019-05-02T07:32:24.553Z,9.8
2019-05-02T07:33:15.678Z,9.8
2019-05-02T07:34:07.940Z,9.8
2019-05-02T07:34:59.033Z,9.8
2019-05-02T07:35:50.106Z,9.8
2019-05-02T07:36:41.157Z,9.9
2019-05-02T07:37:32.108Z,9.8
2019-05-02T07:38:25.548Z,9.8
2019-05-02T07:39:16.662Z,9.8
2019-05-02T07:40:07.547Z,9.8
2019-05-02T07:40:58.424Z,9.8
2019-05-02T07:41:49.450Z,9.8
2019-05-02T07:42:41.726Z,9.8
2019-05-02T07:43:33.615Z,9.8
2019-05-02T07:44:27.053Z,9.8
2019-05-02T07:45:18.228Z,9.9
2019-05-02T07:46:09.112Z,9.9
2019-05-02T07:47:02.436Z,9.9
2019-05-02T07:47:53.726Z,9.9
2019-05-02T07:48:48.671Z,9.9
2019-05-02T07:49:40.130Z,9.8
2019-05-02T07:50:31.012Z,9.8
2019-05-02T07:51:22.635Z,9.7
2019-05-02T07:52:13.762Z,9.6
2019-05-02T07:53:09.167Z,9.5
2019-05-02T07:54:00.551Z,9.5
2019-05-02T07:54:56.054Z,9.4
2019-05-02T07:55:49.021Z,9.4
2019-05-02T07:56:43.293Z,9.5
2019-05-02T07:57:34.373Z,9.4
2019-05-02T07:58:25.476Z,9.5
2019-05-02T07:59:18.576Z,9.8
2019-05-02T08:00:09.670Z,9.8
2019-05-02T08:01:00.693Z,9.9
2019-05-02T08:01:51.795Z,9.8
2019-05-02T08:02:42.871Z,9.8
2019-05-02T08:03:34.782Z,9.8
2019-05-02T08:04:25.881Z,9.8
2019-05-02T08:05:21.461Z,9.8
2019-05-02T08:06:12.846Z,9.8
2019-05-02T08:07:03.740Z,9.8
2019-05-02T08:07:55.223Z,9.8
2019-05-02T08:08:46.252Z,9.8
2019-05-02T08:09:39.127Z,9.8
2019-05-02T08:10:30.296Z,9.8
2019-05-02T08:11:21.178Z,9.8
2019-05-02T08:12:12.062Z,9.8
2019-05-02T08:13:02.962Z,9.8
2019-05-02T08:13:55.175Z,9.8
2019-05-02T08:14:48.262Z,9.8
2019-05-02T08:15:39.139Z,9.8
2019-05-02T08:16:30.010Z,9.7
2019-05-02T08:17:21.082Z,9.6
2019-05-02T08:18:12.385Z,9.4
2019-05-02T08:19:05.358Z,9.3
2019-05-02T08:19:56.414Z,9.3
2019-05-02T08:20:50.931Z,9.6
2019-05-02T08:21:42.089Z,9.8
2019-05-02T08:22:32.988Z,9.8
2019-05-02T08:23:25.749Z,9.7
2019-05-02T08:24:17.076Z,9.8
2019-05-02T08:25:10.321Z,9.9
2019-05-02T08:26:01.536Z,9.9
2019-05-02T08:26:53.317Z,9.8
2019-05-02T08:27:44.490Z,9.9
2019-05-02T08:28:35.437Z,9.9
2019-05-02T08:29:28.718Z,9.9
2019-05-02T08:30:20.178Z,9.9
2019-05-02T08:31:13.427Z,9.9
2019-05-02T08:32:04.615Z,9.9
2019-05-02T08:32:55.510Z,9.9
2019-05-02T08:33:46.437Z,9.9
2019-05-02T08:34:37.328Z,9.9
2019-05-02T08:35:28.490Z,9.9
2019-05-02T08:36:19.412Z,9.9
2019-05-02T08:37:10.304Z,9.9
2019-05-02T08:38:01.192Z,9.9
2019-05-02T08:38:53.475Z,9.9
2019-05-02T08:39:44.722Z,9.9
2019-05-02T08:40:35.643Z,9.9
2019-05-02T08:41:26.524Z,9.9
2019-05-02T08:42:17.408Z,9.9
2019-05-02T08:43:08.931Z,9.9
2019-05-02T08:44:00.353Z,9.9
2019-05-02T08:44:52.493Z,9.9
2019-05-02T08:45:46.906Z,9.9
2019-05-02T08:46:37.778Z,9.9
2019-05-02T08:47:30.484Z,9.9
2019-05-02T08:48:22.741Z,9.9
2019-05-02T08:49:14.111Z,9.9
2019-05-02T08:50:07.693Z,9.9
2019-05-02T08:50:58.680Z,9.9
2019-05-02T08:51:49.591Z,9.9
2019-05-02T08:52:42.069Z,9.9
2019-05-02T08:53:33.417Z,9.9
2019-05-02T08:54:27.873Z,9.9
2019-05-02T08:55:19.021Z,9.9
2019-05-02T08:56:09.920Z,9.9
2019-05-02T08:57:00.817Z,9.9
2019-05-02T08:57:51.698Z,9.9
2019-05-02T08:58:44.847Z,9.9
2019-05-02T08:59:35.955Z,9.9
2019-05-02T09:00:26.855Z,9.9
2019-05-02T09:01:17.736Z,9.9
2019-05-02T09:02:08.617Z,9.9
2019-05-02T09:03:02.499Z,9.9
2019-05-02T09:03:56.631Z,9.9
2019-05-02T09:04:57.817Z,9.9
2019-05-02T09:05:45.915Z,9.9
2019-05-02T09:06:37.107Z,9.9
2019-05-02T09:07:31.499Z,9.9
2019-05-02T09:08:22.707Z,9.9
2019-05-02T09:09:13.661Z,9.9
2019-05-02T09:10:05.623Z,9.9
2019-05-02T09:10:57.073Z,9.9
2019-05-02T09:11:57.437Z,9.9
2019-05-02T09:12:45.257Z,9.9
2019-05-02T09:13:36.361Z,9.9
2019-05-02T09:14:27.285Z,10
2019-05-02T09:15:18.176Z,10
2019-05-02T09:16:09.067Z,10
2019-05-02T09:17:04.606Z,10
2019-05-02T09:17:56.525Z,10
2019-05-02T09:18:51.589Z,10
2019-05-02T09:19:43.837Z,10
2019-05-02T09:20:34.822Z,10
2019-05-02T09:21:26.592Z,10
2019-05-02T09:22:17.844Z,10
2019-05-02T09:23:08.740Z,10
2019-05-02T09:23:59.650Z,10
2019-05-02T09:24:51.999Z,10
2019-05-02T09:25:43.152Z,10
2019-05-02T09:26:38.411Z,10.1
2019-05-02T09:27:29.487Z,10.1
2019-05-02T09:28:22.316Z,10.1
2019-05-02T09:29:15.432Z,10.1
2019-05-02T09:30:06.345Z,10.1
2019-05-02T09:31:02.006Z,10.1
2019-05-02T09:31:53.089Z,10.1
2019-05-02T09:32:43.993Z,10.1
2019-05-02T09:33:36.712Z,10.1
2019-05-02T09:34:27.967Z,10.1
2019-05-02T09:35:18.899Z,10.1
2019-05-02T09:36:11.740Z,10.1
2019-05-02T09:37:02.839Z,10.1
2019-05-02T09:37:53.715Z,10.1
2019-05-02T09:38:48.654Z,10.1
2019-05-02T09:39:41.231Z,10.1
2019-05-02T09:40:32.423Z,10.1
2019-05-02T09:41:26.778Z,10.1
2019-05-02T09:42:19.094Z,10.1
2019-05-02T09:43:12.001Z,10.1
2019-05-02T09:44:03.132Z,10.1
2019-05-02T09:44:56.846Z,10.1
2019-05-02T09:45:47.977Z,10.1
2019-05-02T09:46:38.935Z,10.1
2019-05-02T09:47:32.973Z,10.1
2019-05-02T09:48:26.733Z,10.1
2019-05-02T09:49:17.827Z,10.1
2019-05-02T09:50:08.797Z,10.1
2019-05-02T09:51:04.184Z,10.1
2019-05-02T09:51:59.413Z,10.1
2019-05-02T09:52:52.366Z,10.1
2019-05-02T09:53:43.435Z,10.1
2019-05-02T09:54:36.885Z,10.1
2019-05-02T09:55:28.070Z,9.8
2019-05-02T09:56:18.978Z,9.3
2019-05-02T09:57:11.921Z,8.9
2019-05-02T09:58:02.982Z,8.7
2019-05-02T09:58:54.917Z,8.6
2019-05-02T09:59:50.459Z,8.5
2019-05-02T10:00:41.896Z,8.7
2019-05-02T10:01:32.880Z,9.3
2019-05-02T10:02:25.259Z,9.5
2019-05-02T10:03:16.235Z,9.3
2019-05-02T10:04:07.119Z,9.1
2019-05-02T10:04:58.048Z,9.3
2019-05-02T10:05:48.941Z,9.6
2019-05-02T10:06:39.853Z,9.8
2019-05-02T10:07:32.417Z,9.9
2019-05-02T10:08:23.390Z,9.9
2019-05-02T10:09:18.426Z,10.1
2019-05-02T10:10:09.572Z,10.1
2019-05-02T10:11:02.514Z,10.1
2019-05-02T10:11:53.693Z,10.1
2019-05-02T10:12:44.569Z,10.1
2019-05-02T10:13:35.470Z,9.9
2019-05-02T10:14:26.348Z,9.9
2019-05-02T10:15:17.304Z,10.1
2019-05-02T10:16:08.207Z,10.1
2019-05-02T10:17:02.915Z,10.1
2019-05-02T10:18:07.776Z,9.9
2019-05-02T10:18:52.260Z,9.8
2019-05-02T10:19:48.921Z,9.7
2019-05-02T10:20:39.202Z,9.6
2019-05-02T10:21:31.794Z,9.6
2019-05-02T10:22:24.898Z,9.4
2019-05-02T10:23:23.203Z,9.1
2019-05-02T10:24:13.492Z,9
2019-05-02T10:25:04.434Z,8.8
2019-05-02T10:25:55.339Z,8.8
2019-05-02T10:26:46.229Z,8.6
2019-05-02T10:27:38.402Z,8.4
2019-05-02T10:28:31.523Z,8.4
2019-05-02T10:29:28.002Z,8.7
2019-05-02T10:30:21.592Z,8.9
2019-05-02T10:31:12.718Z,9.1
2019-05-02T10:32:07.423Z,9.3
2019-05-02T10:32:58.723Z,9.5
2019-05-02T10:33:49.625Z,9.8
2019-05-02T10:34:42.206Z,9.9
2019-05-02T10:35:37.113Z,9.8
2019-05-02T10:36:29.093Z,9.9
2019-05-02T10:37:21.697Z,9.9
2019-05-02T10:38:19.331Z,9.4
2019-05-02T10:39:15.144Z,8.9
2019-05-02T10:40:07.712Z,8.9
2019-05-02T10:41:01.709Z,9
2019-05-02T10:41:52.884Z,9.1
2019-05-02T10:42:43.820Z,9.1
2019-05-02T10:43:34.742Z,9
2019-05-02T10:44:27.094Z,9.2
2019-05-02T10:45:18.191Z,9.3
2019-05-02T10:46:09.083Z,9.4
2019-05-02T10:46:59.985Z,9.2
2019-05-02T10:47:52.643Z,9.2
2019-05-02T10:48:43.734Z,9.4
2019-05-02T10:49:34.611Z,9.8
2019-05-02T10:50:25.513Z,9.9
2019-05-02T10:51:16.404Z,9.8
2019-05-02T10:52:07.298Z,9.9
2019-05-02T10:52:58.186Z,9.9
2019-05-02T10:53:52.522Z,9.9
2019-05-02T10:54:44.915Z,10
2019-05-02T10:55:35.836Z,10.1
2019-05-02T10:56:26.719Z,10
2019-05-02T10:57:17.599Z,10.1
2019-05-02T10:58:08.482Z,10.1
2019-05-02T10:58:59.375Z,10.1
2019-05-02T10:59:52.037Z,10.1
2019-05-02T11:00:45.320Z,10.1
2019-05-02T11:01:36.342Z,10.1
2019-05-02T11:02:27.248Z,10.1
2019-05-02T11:03:18.136Z,10
2019-05-02T11:04:09.038Z,9.8
2019-05-02T11:05:00.120Z,9.9
2019-05-02T11:05:52.776Z,10.1
2019-05-02T11:06:46.239Z,10.1
2019-05-02T11:07:37.277Z,10
2019-05-02T11:08:28.152Z,9.9
2019-05-02T11:09:22.368Z,9.8
2019-05-02T11:10:14.864Z,9.3
2019-05-02T11:11:06.301Z,9.1
2019-05-02T11:11:57.309Z,8.8
2019-05-02T11:12:48.191Z,8.6
2019-05-02T11:13:39.062Z,8.8
2019-05-02T11:14:31.730Z,8.8
2019-05-02T11:15:22.758Z,8.9
2019-05-02T11:16:13.696Z,8.9
2019-05-02T11:17:08.673Z,8.8
2019-05-02T11:18:02.166Z,9.1
2019-05-02T11:18:53.198Z,9.2
2019-05-02T11:19:44.124Z,9.3
2019-05-02T11:20:35.079Z,9.3
2019-05-02T11:21:25.972Z,9.1
2019-05-02T11:22:16.870Z,9.1
2019-05-02T11:23:07.833Z,8.9
2019-05-02T11:23:58.791Z,9.1
2019-05-02T11:24:49.801Z,9.3
2019-05-02T11:25:42.103Z,9.3
2019-05-02T11:26:33.153Z,9.4
2019-05-02T11:27:24.045Z,9.4
2019-05-02T11:28:15.005Z,9.3
2019-05-02T11:29:05.909Z,9.5
2019-05-02T11:29:56.793Z,9.5
2019-05-02T11:30:47.716Z,9.3
2019-05-02T11:31:38.611Z,9.3
2019-05-02T11:32:29.490Z,9.3
2019-05-02T11:33:20.411Z,9.3
2019-05-02T11:34:12.292Z,9.3
2019-05-02T11:35:03.385Z,9.4
2019-05-02T11:35:54.314Z,9.8
2019-05-02T11:36:45.230Z,9.8
2019-05-02T11:37:36.144Z,9.8
2019-05-02T11:38:48.937Z,9.8
2019-05-02T11:39:28.507Z,9.9
2019-05-02T11:40:18.724Z,9.9
2019-05-02T11:41:11.770Z,9.9
2019-05-02T11:42:02.795Z,9.9
2019-05-02T11:42:57.170Z,10
2019-05-02T11:43:48.273Z,10
2019-05-02T11:44:39.172Z,9.9
2019-05-02T11:45:32.126Z,9.9
2019-05-02T11:46:23.249Z,9.9
2019-05-02T11:47:17.171Z,9.8
2019-05-02T11:48:10.911Z,9.8
2019-05-02T11:49:02.492Z,10
2019-05-02T11:49:55.829Z,10
2019-05-02T11:50:46.895Z,10
2019-05-02T11:51:37.835Z,10
2019-05-02T11:52:32.807Z,10
2019-05-02T11:53:28.402Z,10
2019-05-02T11:54:19.935Z,10
2019-05-02T11:55:12.581Z,10
2019-05-02T11:56:07.425Z,10
2019-05-02T11:56:58.747Z,10
2019-05-02T11:57:49.716Z,10
2019-05-02T11:58:47.825Z,10
2019-05-02T11:59:36.455Z,10.1
2019-05-02T12:00:27.366Z,10.1
2019-05-02T12:01:19.260Z,10.1
2019-05-02T12:02:17.071Z,10
2019-05-02T12:03:08.714Z,10.1
2019-05-02T12:03:59.621Z,10.1